Terminal Aerodrome Forecast
Issued by NWS Shreveport, LA

Home | Current Version | Previous Version | Text Only | Print | Product List | Glossary On
Versions: 1 2 3 4 5 6 7 8 9 10 11 12 13 14 15 16 17 18 19
747
FTUS44 KSHV 070627 AAA
TAFLFK
TAF AMD
KLFK 070627Z 0706/0806 00000KT 6SM BR SCT001
      TEMPO 0706/0710 1SM BR
     FM071200 17003KT P6SM SKC
     FM071800 23005KT P6SM SKC=

USA.gov is the U.S. government's official web portal to all federal, state and local government web resources and services.